sensor_id;sensor_type;location;lat;lon;timestamp;P1;durP1;ratioP1;P2;durP2;ratioP2
27740;SDS011;15134;48.768;9.184;2023-02-28T00:01:22;7.28;;;3.90;;
27740;SDS011;15134;48.768;9.184;2023-02-28T00:03:49;7.38;;;3.88;;
27740;SDS011;15134;48.768;9.184;2023-02-28T00:06:14;9.10;;;4.70;;
27740;SDS011;15134;48.768;9.184;2023-02-28T00:08:46;8.65;;;4.15;;
27740;SDS011;15134;48.768;9.184;2023-02-28T00:11:12;7.73;;;3.93;;
27740;SDS011;15134;48.768;9.184;2023-02-28T00:13:46;7.57;;;3.78;;
27740;SDS011;15134;48.768;9.184;2023-02-28T00:16:22;10.60;;;4.55;;
27740;SDS011;15134;48.768;9.184;2023-02-28T00:18:48;8.27;;;4.07;;
27740;SDS011;15134;48.768;9.184;2023-02-28T00:21:14;9.15;;;4.05;;
27740;SDS011;15134;48.768;9.184;2023-02-28T00:23:41;8.75;;;3.95;;
27740;SDS011;15134;48.768;9.184;2023-02-28T00:26:07;7.23;;;3.60;;
27740;SDS011;15134;48.768;9.184;2023-02-28T00:28:32;7.43;;;3.70;;
27740;SDS011;15134;48.768;9.184;2023-02-28T00:30:58;8.37;;;3.70;;
27740;SDS011;15134;48.768;9.184;2023-02-28T00:33:28;8.32;;;3.47;;
27740;SDS011;15134;48.768;9.184;2023-02-28T00:36:01;8.73;;;4.22;;
27740;SDS011;15134;48.768;9.184;2023-02-28T00:38:29;11.32;;;4.13;;
27740;SDS011;15134;48.768;9.184;2023-02-28T00:40:54;8.13;;;3.70;;
27740;SDS011;15134;48.768;9.184;2023-02-28T00:43:20;9.63;;;3.97;;
27740;SDS011;15134;48.768;9.184;2023-02-28T00:45:46;9.27;;;4.47;;
27740;SDS011;15134;48.768;9.184;2023-02-28T00:48:11;8.00;;;4.00;;
27740;SDS011;15134;48.768;9.184;2023-02-28T00:50:37;7.13;;;4.15;;
27740;SDS011;15134;48.768;9.184;2023-02-28T00:53:03;7.63;;;3.53;;
27740;SDS011;15134;48.768;9.184;2023-02-28T00:55:29;9.53;;;4.30;;
27740;SDS011;15134;48.768;9.184;2023-02-28T00:57:55;10.33;;;3.77;;
27740;SDS011;15134;48.768;9.184;2023-02-28T01:00:26;11.15;;;5.05;;
27740;SDS011;15134;48.768;9.184;2023-02-28T01:02:52;8.67;;;4.40;;
27740;SDS011;15134;48.768;9.184;2023-02-28T01:05:18;7.17;;;4.30;;
27740;SDS011;15134;48.768;9.184;2023-02-28T01:07:46;8.67;;;4.23;;
27740;SDS011;15134;48.768;9.184;2023-02-28T01:10:12;9.27;;;4.22;;
27740;SDS011;15134;48.768;9.184;2023-02-28T01:12:38;8.17;;;4.13;;
27740;SDS011;15134;48.768;9.184;2023-02-28T01:15:04;7.40;;;3.77;;
27740;SDS011;15134;48.768;9.184;2023-02-28T01:17:30;9.02;;;3.90;;
27740;SDS011;15134;48.768;9.184;2023-02-28T01:19:59;8.20;;;3.80;;
27740;SDS011;15134;48.768;9.184;2023-02-28T01:22:25;6.10;;;3.50;;
27740;SDS011;15134;48.768;9.184;2023-02-28T01:24:51;7.80;;;4.23;;
27740;SDS011;15134;48.768;9.184;2023-02-28T01:27:22;7.93;;;3.80;;
27740;SDS011;15134;48.768;9.184;2023-02-28T01:29:51;8.70;;;4.63;;
27740;SDS011;15134;48.768;9.184;2023-02-28T01:32:17;8.63;;;4.40;;
27740;SDS011;15134;48.768;9.184;2023-02-28T01:34:42;7.07;;;4.30;;
27740;SDS011;15134;48.768;9.184;2023-02-28T01:37:08;9.30;;;3.97;;
27740;SDS011;15134;48.768;9.184;2023-02-28T01:39:34;9.53;;;4.87;;
27740;SDS011;15134;48.768;9.184;2023-02-28T01:42:00;7.40;;;4.10;;
27740;SDS011;15134;48.768;9.184;2023-02-28T01:47:24;9.35;;;4.35;;
27740;SDS011;15134;48.768;9.184;2023-02-28T01:49:55;7.95;;;4.30;;
27740;SDS011;15134;48.768;9.184;2023-02-28T01:54:55;11.55;;;4.00;;
27740;SDS011;15134;48.768;9.184;2023-02-28T01:57:24;9.30;;;4.28;;
27740;SDS011;15134;48.768;9.184;2023-02-28T01:59:57;9.23;;;4.50;;
27740;SDS011;15134;48.768;9.184;2023-02-28T02:02:27;7.53;;;4.25;;
27740;SDS011;15134;48.768;9.184;2023-02-28T02:04:55;11.98;;;4.53;;
27740;SDS011;15134;48.768;9.184;2023-02-28T02:07:26;8.10;;;4.40;;
27740;SDS011;15134;48.768;9.184;2023-02-28T02:10:04;8.70;;;4.38;;
27740;SDS011;15134;48.768;9.184;2023-02-28T02:15:25;10.23;;;4.55;;
27740;SDS011;15134;48.768;9.184;2023-02-28T02:18:01;7.70;;;4.10;;
27740;SDS011;15134;48.768;9.184;2023-02-28T02:30:36;10.00;;;5.07;;
27740;SDS011;15134;48.768;9.184;2023-02-28T02:36:24;8.90;;;5.03;;
27740;SDS011;15134;48.768;9.184;2023-02-28T02:41:46;8.88;;;5.13;;
27740;SDS011;15134;48.768;9.184;2023-02-28T02:44:21;8.00;;;4.88;;
27740;SDS011;15134;48.768;9.184;2023-02-28T02:46:52;9.32;;;4.63;;
27740;SDS011;15134;48.768;9.184;2023-02-28T02:49:36;9.40;;;4.95;;
27740;SDS011;15134;48.768;9.184;2023-02-28T02:52:04;10.82;;;5.25;;
27740;SDS011;15134;48.768;9.184;2023-02-28T02:54:37;12.85;;;5.70;;
27740;SDS011;15134;48.768;9.184;2023-02-28T02:57:12;10.35;;;5.20;;
27740;SDS011;15134;48.768;9.184;2023-02-28T02:59:45;9.85;;;5.82;;
27740;SDS011;15134;48.768;9.184;2023-02-28T03:02:12;8.90;;;5.57;;
27740;SDS011;15134;48.768;9.184;2023-02-28T03:04:52;11.23;;;6.00;;
27740;SDS011;15134;48.768;9.184;2023-02-28T03:07:27;10.70;;;5.18;;
27740;SDS011;15134;48.768;9.184;2023-02-28T03:09:54;9.73;;;5.30;;
27740;SDS011;15134;48.768;9.184;2023-02-28T03:12:22;11.00;;;5.60;;
27740;SDS011;15134;48.768;9.184;2023-02-28T03:15:02;9.13;;;4.95;;
27740;SDS011;15134;48.768;9.184;2023-02-28T03:23:59;10.38;;;5.80;;
27740;SDS011;15134;48.768;9.184;2023-02-28T03:26:28;9.02;;;5.10;;
27740;SDS011;15134;48.768;9.184;2023-02-28T03:28:58;12.00;;;6.03;;
27740;SDS011;15134;48.768;9.184;2023-02-28T03:31:33;8.43;;;5.57;;
27740;SDS011;15134;48.768;9.184;2023-02-28T03:36:45;10.60;;;6.45;;
27740;SDS011;15134;48.768;9.184;2023-02-28T03:39:16;10.90;;;6.40;;
27740;SDS011;15134;48.768;9.184;2023-02-28T03:41:50;10.40;;;5.40;;
27740;SDS011;15134;48.768;9.184;2023-02-28T03:44:29;12.02;;;6.03;;
27740;SDS011;15134;48.768;9.184;2023-02-28T03:47:02;11.77;;;5.88;;
27740;SDS011;15134;48.768;9.184;2023-02-28T03:49:35;9.05;;;5.60;;
27740;SDS011;15134;48.768;9.184;2023-02-28T03:52:09;9.00;;;5.80;;
27740;SDS011;15134;48.768;9.184;2023-02-28T03:54:36;11.13;;;6.25;;
27740;SDS011;15134;48.768;9.184;2023-02-28T03:57:26;12.63;;;6.85;;
27740;SDS011;15134;48.768;9.184;2023-02-28T04:00:27;15.60;;;8.77;;
27740;SDS011;15134;48.768;9.184;2023-02-28T04:03:01;18.25;;;8.40;;
27740;SDS011;15134;48.768;9.184;2023-02-28T04:05:32;18.45;;;10.20;;
27740;SDS011;15134;48.768;9.184;2023-02-28T04:08:09;16.42;;;8.80;;
27740;SDS011;15134;48.768;9.184;2023-02-28T04:10:35;17.33;;;8.33;;
27740;SDS011;15134;48.768;9.184;2023-02-28T04:13:01;11.37;;;6.50;;
27740;SDS011;15134;48.768;9.184;2023-02-28T04:15:29;15.05;;;7.03;;
27740;SDS011;15134;48.768;9.184;2023-02-28T04:17:55;27.63;;;12.17;;
27740;SDS011;15134;48.768;9.184;2023-02-28T04:20:21;11.10;;;6.70;;
27740;SDS011;15134;48.768;9.184;2023-02-28T04:22:49;16.30;;;8.33;;
27740;SDS011;15134;48.768;9.184;2023-02-28T04:25:15;18.98;;;8.80;;
27740;SDS011;15134;48.768;9.184;2023-02-28T04:27:41;14.93;;;7.90;;
27740;SDS011;15134;48.768;9.184;2023-02-28T04:30:09;11.57;;;6.97;;
27740;SDS011;15134;48.768;9.184;2023-02-28T04:32:36;11.80;;;7.05;;
27740;SDS011;15134;48.768;9.184;2023-02-28T04:35:08;11.07;;;6.67;;
27740;SDS011;15134;48.768;9.184;2023-02-28T04:37:37;11.38;;;6.43;;
27740;SDS011;15134;48.768;9.184;2023-02-28T04:40:05;13.00;;;7.25;;
27740;SDS011;15134;48.768;9.184;2023-02-28T04:42:32;11.73;;;6.90;;
27740;SDS011;15134;48.768;9.184;2023-02-28T04:45:03;17.13;;;8.63;;
27740;SDS011;15134;48.768;9.184;2023-02-28T04:47:29;14.18;;;7.47;;
27740;SDS011;15134;48.768;9.184;2023-02-28T04:49:57;12.20;;;7.45;;
27740;SDS011;15134;48.768;9.184;2023-02-28T04:52:23;11.40;;;6.25;;
27740;SDS011;15134;48.768;9.184;2023-02-28T04:54:49;13.10;;;7.40;;
27740;SDS011;15134;48.768;9.184;2023-02-28T04:57:14;14.30;;;7.50;;
27740;SDS011;15134;48.768;9.184;2023-02-28T04:59:41;12.93;;;7.27;;
27740;SDS011;15134;48.768;9.184;2023-02-28T05:02:09;13.18;;;7.30;;
27740;SDS011;15134;48.768;9.184;2023-02-28T05:04:35;16.00;;;7.82;;
27740;SDS011;15134;48.768;9.184;2023-02-28T05:07:02;15.60;;;8.73;;
27740;SDS011;15134;48.768;9.184;2023-02-28T05:09:28;10.73;;;6.82;;
27740;SDS011;15134;48.768;9.184;2023-02-28T05:11:54;9.48;;;5.75;;
27740;SDS011;15134;48.768;9.184;2023-02-28T05:14:20;11.60;;;7.10;;
27740;SDS011;15134;48.768;9.184;2023-02-28T05:16:49;14.45;;;7.72;;
27740;SDS011;15134;48.768;9.184;2023-02-28T05:19:15;13.32;;;7.35;;
27740;SDS011;15134;48.768;9.184;2023-02-28T05:21:41;15.07;;;7.97;;
27740;SDS011;15134;48.768;9.184;2023-02-28T05:24:19;14.98;;;7.95;;
27740;SDS011;15134;48.768;9.184;2023-02-28T05:26:52;14.25;;;8.13;;
27740;SDS011;15134;48.768;9.184;2023-02-28T05:29:19;12.43;;;7.55;;
27740;SDS011;15134;48.768;9.184;2023-02-28T05:31:45;13.38;;;7.97;;
27740;SDS011;15134;48.768;9.184;2023-02-28T05:34:11;14.32;;;7.82;;
27740;SDS011;15134;48.768;9.184;2023-02-28T05:36:37;14.80;;;8.13;;
27740;SDS011;15134;48.768;9.184;2023-02-28T05:39:05;13.55;;;7.70;;
27740;SDS011;15134;48.768;9.184;2023-02-28T05:41:32;14.30;;;7.65;;
27740;SDS011;15134;48.768;9.184;2023-02-28T05:44:04;13.83;;;8.17;;
27740;SDS011;15134;48.768;9.184;2023-02-28T05:46:29;17.35;;;7.60;;
27740;SDS011;15134;48.768;9.184;2023-02-28T05:48:55;21.43;;;9.40;;
27740;SDS011;15134;48.768;9.184;2023-02-28T05:51:22;14.68;;;8.38;;
27740;SDS011;15134;48.768;9.184;2023-02-28T05:53:49;14.43;;;7.63;;
27740;SDS011;15134;48.768;9.184;2023-02-28T05:56:15;15.05;;;7.95;;
27740;SDS011;15134;48.768;9.184;2023-02-28T05:58:41;13.43;;;8.13;;
27740;SDS011;15134;48.768;9.184;2023-02-28T06:03:49;14.48;;;8.63;;
27740;SDS011;15134;48.768;9.184;2023-02-28T06:06:14;26.03;;;12.43;;
27740;SDS011;15134;48.768;9.184;2023-02-28T06:08:40;14.90;;;8.83;;
27740;SDS011;15134;48.768;9.184;2023-02-28T06:11:08;34.70;;;17.35;;
27740;SDS011;15134;48.768;9.184;2023-02-28T06:13:34;25.87;;;15.70;;
27740;SDS011;15134;48.768;9.184;2023-02-28T06:16:03;17.53;;;9.57;;
27740;SDS011;15134;48.768;9.184;2023-02-28T06:18:28;17.77;;;9.00;;
27740;SDS011;15134;48.768;9.184;2023-02-28T06:20:54;14.53;;;8.87;;
27740;SDS011;15134;48.768;9.184;2023-02-28T06:23:21;16.85;;;9.27;;
27740;SDS011;15134;48.768;9.184;2023-02-28T06:25:47;17.13;;;9.68;;
27740;SDS011;15134;48.768;9.184;2023-02-28T06:28:14;15.27;;;9.25;;
27740;SDS011;15134;48.768;9.184;2023-02-28T06:30:40;15.90;;;9.40;;
27740;SDS011;15134;48.768;9.184;2023-02-28T06:33:06;15.17;;;9.00;;
27740;SDS011;15134;48.768;9.184;2023-02-28T06:35:32;31.07;;;17.20;;
27740;SDS011;15134;48.768;9.184;2023-02-28T06:37:57;19.97;;;9.37;;
27740;SDS011;15134;48.768;9.184;2023-02-28T06:40:23;16.23;;;8.50;;
27740;SDS011;15134;48.768;9.184;2023-02-28T06:42:49;14.67;;;9.17;;
27740;SDS011;15134;48.768;9.184;2023-02-28T06:45:14;19.23;;;10.77;;
27740;SDS011;15134;48.768;9.184;2023-02-28T06:47:41;18.00;;;9.70;;
27740;SDS011;15134;48.768;9.184;2023-02-28T06:50:08;17.88;;;10.00;;
27740;SDS011;15134;48.768;9.184;2023-02-28T06:52:38;17.60;;;9.15;;
27740;SDS011;15134;48.768;9.184;2023-02-28T06:55:06;19.60;;;11.03;;
27740;SDS011;15134;48.768;9.184;2023-02-28T06:57:33;16.27;;;10.32;;
27740;SDS011;15134;48.768;9.184;2023-02-28T07:00:08;16.92;;;9.82;;
27740;SDS011;15134;48.768;9.184;2023-02-28T07:02:37;17.10;;;9.40;;
27740;SDS011;15134;48.768;9.184;2023-02-28T07:05:04;16.65;;;9.50;;
27740;SDS011;15134;48.768;9.184;2023-02-28T07:07:30;19.00;;;11.15;;
27740;SDS011;15134;48.768;9.184;2023-02-28T07:09:57;19.00;;;9.82;;
27740;SDS011;15134;48.768;9.184;2023-02-28T07:12:23;26.38;;;12.00;;
27740;SDS011;15134;48.768;9.184;2023-02-28T07:14:49;21.23;;;10.20;;
27740;SDS011;15134;48.768;9.184;2023-02-28T07:17:15;20.23;;;10.67;;
27740;SDS011;15134;48.768;9.184;2023-02-28T07:19:44;18.40;;;10.40;;
27740;SDS011;15134;48.768;9.184;2023-02-28T07:22:09;16.43;;;9.63;;
27740;SDS011;15134;48.768;9.184;2023-02-28T07:24:35;19.20;;;11.40;;
27740;SDS011;15134;48.768;9.184;2023-02-28T07:27:01;28.00;;;14.23;;
27740;SDS011;15134;48.768;9.184;2023-02-28T07:29:27;19.47;;;11.13;;
27740;SDS011;15134;48.768;9.184;2023-02-28T07:31:55;18.07;;;10.90;;
27740;SDS011;15134;48.768;9.184;2023-02-28T07:34:21;31.85;;;17.58;;
27740;SDS011;15134;48.768;9.184;2023-02-28T07:36:47;17.98;;;10.93;;
27740;SDS011;15134;48.768;9.184;2023-02-28T07:39:13;16.37;;;10.30;;
27740;SDS011;15134;48.768;9.184;2023-02-28T07:41:39;15.93;;;10.00;;
27740;SDS011;15134;48.768;9.184;2023-02-28T07:44:11;19.52;;;10.43;;
27740;SDS011;15134;48.768;9.184;2023-02-28T07:46:37;19.00;;;10.68;;
27740;SDS011;15134;48.768;9.184;2023-02-28T07:49:03;20.15;;;11.25;;
27740;SDS011;15134;48.768;9.184;2023-02-28T07:51:29;19.98;;;11.23;;
27740;SDS011;15134;48.768;9.184;2023-02-28T07:53:55;19.23;;;12.47;;
27740;SDS011;15134;48.768;9.184;2023-02-28T07:56:22;19.27;;;10.75;;
27740;SDS011;15134;48.768;9.184;2023-02-28T07:58:47;18.83;;;11.13;;
27740;SDS011;15134;48.768;9.184;2023-02-28T08:01:13;16.77;;;10.83;;
27740;SDS011;15134;48.768;9.184;2023-02-28T08:03:39;19.67;;;10.75;;
27740;SDS011;15134;48.768;9.184;2023-02-28T08:06:06;16.48;;;10.57;;
27740;SDS011;15134;48.768;9.184;2023-02-28T08:08:40;20.27;;;11.05;;
27740;SDS011;15134;48.768;9.184;2023-02-28T08:11:10;20.20;;;10.37;;
27740;SDS011;15134;48.768;9.184;2023-02-28T08:13:36;18.40;;;11.43;;
27740;SDS011;15134;48.768;9.184;2023-02-28T08:16:02;19.97;;;11.73;;
27740;SDS011;15134;48.768;9.184;2023-02-28T08:18:29;16.65;;;10.95;;
27740;SDS011;15134;48.768;9.184;2023-02-28T08:20:55;20.27;;;11.60;;
27740;SDS011;15134;48.768;9.184;2023-02-28T08:23:22;18.92;;;11.32;;
27740;SDS011;15134;48.768;9.184;2023-02-28T08:25:54;18.80;;;11.20;;
27740;SDS011;15134;48.768;9.184;2023-02-28T08:28:21;20.98;;;11.82;;
27740;SDS011;15134;48.768;9.184;2023-02-28T08:30:47;16.92;;;11.10;;
27740;SDS011;15134;48.768;9.184;2023-02-28T08:33:14;24.45;;;11.77;;
27740;SDS011;15134;48.768;9.184;2023-02-28T08:35:42;18.83;;;12.00;;
27740;SDS011;15134;48.768;9.184;2023-02-28T08:38:07;18.83;;;11.63;;
27740;SDS011;15134;48.768;9.184;2023-02-28T08:40:33;16.43;;;10.40;;
27740;SDS011;15134;48.768;9.184;2023-02-28T08:42:59;18.03;;;11.57;;
27740;SDS011;15134;48.768;9.184;2023-02-28T08:45:25;19.33;;;12.60;;
27740;SDS011;15134;48.768;9.184;2023-02-28T08:47:51;23.00;;;12.50;;
27740;SDS011;15134;48.768;9.184;2023-02-28T08:50:19;17.67;;;11.30;;
27740;SDS011;15134;48.768;9.184;2023-02-28T08:52:45;21.17;;;13.23;;
27740;SDS011;15134;48.768;9.184;2023-02-28T08:55:10;20.77;;;12.57;;
27740;SDS011;15134;48.768;9.184;2023-02-28T08:57:36;19.37;;;11.77;;
27740;SDS011;15134;48.768;9.184;2023-02-28T09:00:03;20.38;;;11.90;;
27740;SDS011;15134;48.768;9.184;2023-02-28T09:02:31;21.25;;;12.65;;
27740;SDS011;15134;48.768;9.184;2023-02-28T09:04:57;20.55;;;11.27;;
27740;SDS011;15134;48.768;9.184;2023-02-28T09:07:23;19.17;;;11.27;;
27740;SDS011;15134;48.768;9.184;2023-02-28T09:09:50;20.27;;;12.70;;
27740;SDS011;15134;48.768;9.184;2023-02-28T09:12:22;19.27;;;12.70;;
27740;SDS011;15134;48.768;9.184;2023-02-28T09:14:49;19.75;;;12.25;;
27740;SDS011;15134;48.768;9.184;2023-02-28T09:17:16;19.10;;;11.65;;
27740;SDS011;15134;48.768;9.184;2023-02-28T09:19:42;20.30;;;12.50;;
27740;SDS011;15134;48.768;9.184;2023-02-28T09:22:08;19.20;;;12.32;;
27740;SDS011;15134;48.768;9.184;2023-02-28T09:24:36;20.85;;;12.77;;
27740;SDS011;15134;48.768;9.184;2023-02-28T09:29:28;20.25;;;12.00;;
27740;SDS011;15134;48.768;9.184;2023-02-28T09:31:54;18.40;;;12.40;;
27740;SDS011;15134;48.768;9.184;2023-02-28T09:34:19;20.77;;;12.57;;
27740;SDS011;15134;48.768;9.184;2023-02-28T09:36:45;19.10;;;12.47;;
27740;SDS011;15134;48.768;9.184;2023-02-28T09:39:11;20.77;;;12.80;;
27740;SDS011;15134;48.768;9.184;2023-02-28T09:41:44;19.05;;;11.73;;
27740;SDS011;15134;48.768;9.184;2023-02-28T09:44:17;56.65;;;26.75;;
27740;SDS011;15134;48.768;9.184;2023-02-28T09:46:47;23.65;;;13.50;;
27740;SDS011;15134;48.768;9.184;2023-02-28T09:49:18;20.08;;;12.40;;
27740;SDS011;15134;48.768;9.184;2023-02-28T09:52:03;20.98;;;12.20;;
27740;SDS011;15134;48.768;9.184;2023-02-28T09:54:35;21.02;;;12.43;;
27740;SDS011;15134;48.768;9.184;2023-02-28T10:04:56;21.65;;;11.48;;
27740;SDS011;15134;48.768;9.184;2023-02-28T10:07:46;17.15;;;11.43;;
27740;SDS011;15134;48.768;9.184;2023-02-28T10:10:23;18.65;;;11.93;;
27740;SDS011;15134;48.768;9.184;2023-02-28T10:12:51;19.77;;;12.23;;
27740;SDS011;15134;48.768;9.184;2023-02-28T10:15:23;20.10;;;13.10;;
27740;SDS011;15134;48.768;9.184;2023-02-28T10:17:54;18.50;;;11.73;;
27740;SDS011;15134;48.768;9.184;2023-02-28T10:20:23;20.48;;;12.30;;
27740;SDS011;15134;48.768;9.184;2023-02-28T10:25:53;23.30;;;13.30;;
27740;SDS011;15134;48.768;9.184;2023-02-28T10:28:26;20.92;;;13.07;;
27740;SDS011;15134;48.768;9.184;2023-02-28T10:30:54;21.27;;;12.95;;
27740;SDS011;15134;48.768;9.184;2023-02-28T10:33:25;19.52;;;12.70;;
27740;SDS011;15134;48.768;9.184;2023-02-28T10:35:55;19.33;;;11.95;;
27740;SDS011;15134;48.768;9.184;2023-02-28T10:38:26;24.10;;;13.75;;
27740;SDS011;15134;48.768;9.184;2023-02-28T10:41:07;19.73;;;12.63;;
27740;SDS011;15134;48.768;9.184;2023-02-28T10:43:35;19.48;;;12.75;;
27740;SDS011;15134;48.768;9.184;2023-02-28T10:46:04;19.42;;;12.52;;
27740;SDS011;15134;48.768;9.184;2023-02-28T10:48:38;19.35;;;12.02;;
27740;SDS011;15134;48.768;9.184;2023-02-28T10:51:08;18.55;;;12.23;;
27740;SDS011;15134;48.768;9.184;2023-02-28T10:53:45;18.90;;;11.15;;
27740;SDS011;15134;48.768;9.184;2023-02-28T10:56:31;20.92;;;13.25;;
27740;SDS011;15134;48.768;9.184;2023-02-28T11:01:37;21.23;;;12.55;;
27740;SDS011;15134;48.768;9.184;2023-02-28T11:06:43;26.27;;;16.00;;
27740;SDS011;15134;48.768;9.184;2023-02-28T11:09:16;21.52;;;13.68;;
27740;SDS011;15134;48.768;9.184;2023-02-28T11:11:58;21.27;;;12.45;;
27740;SDS011;15134;48.768;9.184;2023-02-28T11:14:29;19.17;;;12.30;;
27740;SDS011;15134;48.768;9.184;2023-02-28T11:17:11;20.35;;;12.68;;
27740;SDS011;15134;48.768;9.184;2023-02-28T11:19:58;21.45;;;13.45;;
27740;SDS011;15134;48.768;9.184;2023-02-28T11:22:35;24.10;;;12.35;;
27740;SDS011;15134;48.768;9.184;2023-02-28T11:25:47;43.63;;;24.90;;
27740;SDS011;15134;48.768;9.184;2023-02-28T11:27:57;39.13;;;21.05;;
27740;SDS011;15134;48.768;9.184;2023-02-28T11:32:52;61.33;;;31.47;;
27740;SDS011;15134;48.768;9.184;2023-02-28T11:35:21;53.30;;;26.73;;
27740;SDS011;15134;48.768;9.184;2023-02-28T11:37:51;44.28;;;24.33;;
27740;SDS011;15134;48.768;9.184;2023-02-28T11:40:18;22.65;;;14.23;;
27740;SDS011;15134;48.768;9.184;2023-02-28T11:42:50;17.52;;;11.30;;
27740;SDS011;15134;48.768;9.184;2023-02-28T11:56:21;17.20;;;12.45;;
27740;SDS011;15134;48.768;9.184;2023-02-28T12:22:27;17.83;;;12.37;;
27740;SDS011;15134;48.768;9.184;2023-02-28T12:27:50;17.13;;;11.48;;
27740;SDS011;15134;48.768;9.184;2023-02-28T12:32:54;18.77;;;11.95;;
27740;SDS011;15134;48.768;9.184;2023-02-28T12:35:39;17.77;;;11.82;;
27740;SDS011;15134;48.768;9.184;2023-02-28T12:49:04;15.75;;;11.40;;
27740;SDS011;15134;48.768;9.184;2023-02-28T12:51:33;15.98;;;11.35;;
27740;SDS011;15134;48.768;9.184;2023-02-28T12:54:04;18.80;;;11.90;;
27740;SDS011;15134;48.768;9.184;2023-02-28T12:56:39;18.95;;;11.73;;
27740;SDS011;15134;48.768;9.184;2023-02-28T12:59:27;16.88;;;11.60;;
27740;SDS011;15134;48.768;9.184;2023-02-28T13:10:19;31.40;;;17.30;;
27740;SDS011;15134;48.768;9.184;2023-02-28T13:12:49;19.37;;;12.63;;
27740;SDS011;15134;48.768;9.184;2023-02-28T13:15:24;17.63;;;12.05;;
27740;SDS011;15134;48.768;9.184;2023-02-28T13:17:59;19.00;;;12.02;;
27740;SDS011;15134;48.768;9.184;2023-02-28T13:20:33;18.63;;;12.73;;
27740;SDS011;15134;48.768;9.184;2023-02-28T13:23:01;16.88;;;11.48;;
27740;SDS011;15134;48.768;9.184;2023-02-28T13:27:59;20.45;;;12.50;;
27740;SDS011;15134;48.768;9.184;2023-02-28T13:35:45;19.37;;;11.70;;
27740;SDS011;15134;48.768;9.184;2023-02-28T13:38:15;16.98;;;11.98;;
27740;SDS011;15134;48.768;9.184;2023-02-28T13:40:52;18.08;;;12.23;;
27740;SDS011;15134;48.768;9.184;2023-02-28T13:43:18;18.03;;;11.27;;
27740;SDS011;15134;48.768;9.184;2023-02-28T13:50:56;19.57;;;12.27;;
27740;SDS011;15134;48.768;9.184;2023-02-28T13:59:12;17.35;;;11.18;;
27740;SDS011;15134;48.768;9.184;2023-02-28T14:07:23;17.08;;;11.80;;
27740;SDS011;15134;48.768;9.184;2023-02-28T14:09:57;17.70;;;11.65;;
27740;SDS011;15134;48.768;9.184;2023-02-28T14:15:27;16.42;;;10.68;;
27740;SDS011;15134;48.768;9.184;2023-02-28T14:21:39;16.83;;;11.10;;
27740;SDS011;15134;48.768;9.184;2023-02-28T14:26:58;18.63;;;11.23;;
27740;SDS011;15134;48.768;9.184;2023-02-28T14:35:36;19.13;;;11.07;;
27740;SDS011;15134;48.768;9.184;2023-02-28T14:38:23;19.23;;;12.02;;
27740;SDS011;15134;48.768;9.184;2023-02-28T14:40:54;18.50;;;12.07;;
27740;SDS011;15134;48.768;9.184;2023-02-28T14:43:26;16.30;;;11.23;;
27740;SDS011;15134;48.768;9.184;2023-02-28T14:45:59;17.75;;;11.23;;
27740;SDS011;15134;48.768;9.184;2023-02-28T14:48:27;16.42;;;10.73;;
27740;SDS011;15134;48.768;9.184;2023-02-28T14:50:55;20.52;;;11.85;;
27740;SDS011;15134;48.768;9.184;2023-02-28T14:53:27;19.50;;;11.05;;
27740;SDS011;15134;48.768;9.184;2023-02-28T14:55:55;17.08;;;10.68;;
27740;SDS011;15134;48.768;9.184;2023-02-28T14:58:28;15.30;;;10.97;;
27740;SDS011;15134;48.768;9.184;2023-02-28T15:00:59;18.08;;;11.63;;
27740;SDS011;15134;48.768;9.184;2023-02-28T15:06:03;18.92;;;11.02;;
27740;SDS011;15134;48.768;9.184;2023-02-28T15:08:34;21.08;;;12.50;;
27740;SDS011;15134;48.768;9.184;2023-02-28T15:11:05;16.85;;;11.10;;
27740;SDS011;15134;48.768;9.184;2023-02-28T15:16:06;17.13;;;11.32;;
27740;SDS011;15134;48.768;9.184;2023-02-28T15:18:44;17.38;;;11.32;;
27740;SDS011;15134;48.768;9.184;2023-02-28T15:21:21;18.23;;;11.40;;
27740;SDS011;15134;48.768;9.184;2023-02-28T15:27:03;18.50;;;10.73;;
27740;SDS011;15134;48.768;9.184;2023-02-28T15:29:33;17.35;;;11.38;;
27740;SDS011;15134;48.768;9.184;2023-02-28T15:32:16;21.92;;;11.35;;
27740;SDS011;15134;48.768;9.184;2023-02-28T15:34:56;19.10;;;11.45;;
27740;SDS011;15134;48.768;9.184;2023-02-28T15:37:46;16.63;;;10.85;;
27740;SDS011;15134;48.768;9.184;2023-02-28T15:40:31;17.40;;;12.27;;
27740;SDS011;15134;48.768;9.184;2023-02-28T15:48:52;19.25;;;11.95;;
27740;SDS011;15134;48.768;9.184;2023-02-28T15:53:38;17.65;;;12.02;;
27740;SDS011;15134;48.768;9.184;2023-02-28T15:59:01;19.40;;;11.32;;
27740;SDS011;15134;48.768;9.184;2023-02-28T16:01:31;17.88;;;12.10;;
27740;SDS011;15134;48.768;9.184;2023-02-28T16:04:01;20.92;;;12.18;;
27740;SDS011;15134;48.768;9.184;2023-02-28T16:09:05;21.80;;;13.02;;
27740;SDS011;15134;48.768;9.184;2023-02-28T16:11:34;19.65;;;12.50;;
27740;SDS011;15134;48.768;9.184;2023-02-28T16:14:06;17.77;;;11.30;;
27740;SDS011;15134;48.768;9.184;2023-02-28T16:16:43;18.73;;;11.63;;
27740;SDS011;15134;48.768;9.184;2023-02-28T16:19:10;20.15;;;11.77;;
27740;SDS011;15134;48.768;9.184;2023-02-28T16:21:36;18.00;;;12.13;;
27740;SDS011;15134;48.768;9.184;2023-02-28T16:24:02;18.83;;;12.57;;
27740;SDS011;15134;48.768;9.184;2023-02-28T16:26:28;17.63;;;11.70;;
27740;SDS011;15134;48.768;9.184;2023-02-28T16:28:53;19.73;;;12.97;;
27740;SDS011;15134;48.768;9.184;2023-02-28T16:31:20;19.92;;;12.18;;
27740;SDS011;15134;48.768;9.184;2023-02-28T16:33:51;20.25;;;12.57;;
27740;SDS011;15134;48.768;9.184;2023-02-28T16:36:18;17.92;;;12.02;;
27740;SDS011;15134;48.768;9.184;2023-02-28T16:38:46;22.85;;;12.82;;
27740;SDS011;15134;48.768;9.184;2023-02-28T16:41:14;19.37;;;12.13;;
27740;SDS011;15134;48.768;9.184;2023-02-28T16:43:44;19.77;;;12.43;;
27740;SDS011;15134;48.768;9.184;2023-02-28T16:46:16;20.48;;;12.70;;
27740;SDS011;15134;48.768;9.184;2023-02-28T16:48:43;18.70;;;11.40;;
27740;SDS011;15134;48.768;9.184;2023-02-28T16:51:17;20.50;;;12.55;;
27740;SDS011;15134;48.768;9.184;2023-02-28T16:53:44;18.27;;;12.75;;
27740;SDS011;15134;48.768;9.184;2023-02-28T16:56:20;18.80;;;11.80;;
27740;SDS011;15134;48.768;9.184;2023-02-28T16:58:50;18.67;;;12.45;;
27740;SDS011;15134;48.768;9.184;2023-02-28T17:01:20;21.13;;;13.18;;
27740;SDS011;15134;48.768;9.184;2023-02-28T17:03:47;21.50;;;13.03;;
27740;SDS011;15134;48.768;9.184;2023-02-28T17:08:50;19.00;;;13.02;;
27740;SDS011;15134;48.768;9.184;2023-02-28T17:11:17;31.70;;;18.40;;
27740;SDS011;15134;48.768;9.184;2023-02-28T17:13:43;24.83;;;13.63;;
27740;SDS011;15134;48.768;9.184;2023-02-28T17:16:14;23.52;;;14.18;;
27740;SDS011;15134;48.768;9.184;2023-02-28T17:18:57;21.30;;;13.98;;
27740;SDS011;15134;48.768;9.184;2023-02-28T17:21:29;22.73;;;12.98;;
27740;SDS011;15134;48.768;9.184;2023-02-28T17:26:22;19.98;;;13.40;;
27740;SDS011;15134;48.768;9.184;2023-02-28T17:28:57;21.40;;;13.05;;
27740;SDS011;15134;48.768;9.184;2023-02-28T17:31:29;21.23;;;12.85;;
27740;SDS011;15134;48.768;9.184;2023-02-28T17:33:57;21.70;;;12.95;;
27740;SDS011;15134;48.768;9.184;2023-02-28T17:36:28;22.77;;;13.93;;
27740;SDS011;15134;48.768;9.184;2023-02-28T17:38:54;21.37;;;12.97;;
27740;SDS011;15134;48.768;9.184;2023-02-28T17:41:20;20.60;;;13.20;;
27740;SDS011;15134;48.768;9.184;2023-02-28T17:43:46;22.03;;;13.20;;
27740;SDS011;15134;48.768;9.184;2023-02-28T17:46:19;21.00;;;13.77;;